Terminal Aerodrome Forecast
Issued by NWS

Home | Current Version | Previous Version | Text Only | Print | Product List | Glossary On
Versions: 1 2 3 4 5 6 7 8 9 10 11 12 13 14 15 16 17 18 19 20 21 22 23 24 25 26 27 28 29 30 31 32 33 34 35 36 37 38 39 40 41 42 43 44 45 46 47 48 49 50
000
FTUS41 KBOX 160534
TAFACK
TAF
KACK 160534Z 1606/1706 22015G22KT P6SM BKN150
     FM161600 21015KT P6SM OVC050 WS020/22040KT
     FM162200 20013KT 4SM -SHRA BR OVC020 WS020/22045KT
     FM170000 20012KT 1SM -SHRA BR OVC008 WS020/23045KT
     FM170400 22012KT 1/2SM FG OVC002=

USA.gov is the U.S. government's official web portal to all federal, state and local government web resources and services.